Terminal Aerodrome Forecast
Issued by NWS

Current Version | Previous Version | Text Only | Print | Product List | Glossary On
Versions: 1 2 3 4 5 6 7 8 9 10 11 12 13 14 15 16 17 18 19 20 21 22 23
000
FTUS45 KLKN 271722
TAFEKO
TAF
KEKO 271722Z 2718/2818 VRB04KT P6SM -SHRA SCT025 OVC040
      TEMPO 2718/2722 BKN015 OVC030
     FM272200 22008KT P6SM -SHRA SCT015 OVC025
     FM281500 VRB03KT P6SM OVC050=

USA.gov is the U.S. government's official web portal to all federal, state and local government web resources and services.